Time;durP1;ratioP1;P1;durP2;ratioP2;P2;SDS_P1;SDS_P2;PMS_P1;PMS_P2;Temp;Humidity;BMP_temperature;BMP_pressure;BME280_temperature;BME280_humidity;BME280_pressure;Samples;Min_cycle;Max_cycle;Signal;HPM_P1;HPM_P2
2022/07/30 00:01:15;;;;;;;6.53;5.67;;;18.50;99.90;;;;;;5069955;28;20227;-72
2022/07/30 00:03:42;;;;;;;8.40;5.20;;;18.40;99.90;;;;;;5066648;28;20218;-72
2022/07/30 00:06:09;;;;;;;6.60;5.50;;;18.30;99.90;;;;;;5072964;28;20193;-72
2022/07/30 00:08:36;;;;;;;8.07;6.17;;;18.20;99.90;;;;;;5069944;28;20197;-73
2022/07/30 00:11:03;;;;;;;9.47;6.30;;;18.20;99.90;;;;;;5073115;28;20311;-72
2022/07/30 00:13:29;;;;;;;6.20;5.60;;;18.10;99.90;;;;;;5067525;28;20205;-72
2022/07/30 00:15:56;;;;;;;7.57;6.27;;;18.00;99.90;;;;;;5065287;28;20202;-71
2022/07/30 00:18:23;;;;;;;9.87;6.53;;;18.00;99.90;;;;;;5062966;28;20202;-71
2022/07/30 00:20:49;;;;;;;7.60;6.00;;;17.90;99.90;;;;;;5067734;28;20214;-72
2022/07/30 00:23:17;;;;;;;8.43;6.13;;;17.90;99.90;;;;;;5069179;28;20638;-71
2022/07/30 00:25:44;;;;;;;7.20;5.87;;;17.90;99.90;;;;;;5074239;28;20485;-72
2022/07/30 00:31:02;;;;;;;9.53;6.50;;;17.80;99.90;;;;;;5602090;22;20225;-68
2022/07/30 00:33:29;;;;;;;7.40;6.00;;;17.80;99.90;;;;;;5053143;28;20293;-68
2022/07/30 00:35:56;;;;;;;10.97;6.67;;;17.80;99.90;;;;;;5060194;28;20213;-68
2022/07/30 00:38:22;;;;;;;7.70;6.70;;;17.80;99.90;;;;;;5056783;28;20202;-67
2022/07/30 00:40:49;;;;;;;9.20;6.97;;;17.70;99.90;;;;;;5053729;28;20301;-68
2022/07/30 00:43:16;;;;;;;8.67;6.30;;;17.60;99.90;;;;;;5053772;28;20223;-67
2022/07/30 00:45:43;;;;;;;10.83;6.57;;;17.70;99.90;;;;;;5054746;28;20674;-68
2022/07/30 00:48:12;;;;;;;10.43;6.80;;;17.70;99.90;;;;;;5054724;28;20199;-69
2022/07/30 00:50:39;;;;;;;9.83;6.20;;;17.70;99.90;;;;;;5053840;28;20227;-68
2022/07/30 00:53:10;;;;;;;8.50;6.50;;;17.90;99.90;;;;;;5051289;28;20218;-69
2022/07/30 00:55:37;;;;;;;8.90;6.80;;;18.00;99.90;;;;;;5053928;28;20217;-68
2022/07/30 00:58:04;;;;;;;8.33;6.27;;;17.80;99.90;;;;;;5057223;28;20228;-68
2022/07/30 01:00:30;;;;;;;8.50;6.53;;;17.80;99.90;;;;;;5059069;28;20234;-67
2022/07/30 01:02:57;;;;;;;8.10;6.27;;;17.60;99.90;;;;;;5055176;28;20267;-68
2022/07/30 01:05:24;;;;;;;8.23;6.37;;;17.50;99.90;;;;;;5053805;28;20692;-67
2022/07/30 01:07:51;;;;;;;12.53;6.50;;;17.40;99.90;;;;;;5056298;28;20587;-68
2022/07/30 01:10:17;;;;;;;8.83;6.57;;;17.40;99.90;;;;;;5052728;28;20222;-68
2022/07/30 01:12:45;;;;;;;10.47;6.77;;;17.40;99.90;;;;;;5057385;28;20202;-68
2022/07/30 01:15:12;;;;;;;8.80;6.60;;;17.40;99.90;;;;;;5055670;28;20199;-68
2022/07/30 01:17:39;;;;;;;10.63;7.33;;;17.50;99.90;;;;;;5051107;28;20198;-68
2022/07/30 01:20:12;;;;;;;8.20;6.47;;;17.60;99.90;;;;;;5056010;28;20740;-69
2022/07/30 01:23:02;;;;;;;7.67;6.70;;;17.60;99.90;;;;;;5054288;28;20229;-69
2022/07/30 01:25:53;;;;;;;7.00;6.27;;;17.50;99.90;;;;;;5051916;28;20237;-69
2022/07/30 01:28:37;;;;;;;11.13;6.87;;;17.50;99.90;;;;;;5051824;28;20222;-69
2022/07/30 01:31:05;;;;;;;9.90;6.00;;;17.50;99.90;;;;;;5053237;28;20283;-67
2022/07/30 01:33:36;;;;;;;8.57;6.33;;;17.40;99.90;;;;;;5050602;28;20206;-69
2022/07/30 01:36:07;;;;;;;10.57;5.80;;;17.30;99.90;;;;;;5053726;28;20198;-68
2022/07/30 01:38:35;;;;;;;11.77;6.77;;;17.20;99.90;;;;;;5051788;28;20201;-68
2022/07/30 01:41:04;;;;;;;9.83;6.57;;;17.10;99.90;;;;;;5049712;28;20663;-68
2022/07/30 01:43:33;;;;;;;9.30;6.40;;;17.20;99.90;;;;;;5054935;28;20222;-69
2022/07/30 01:46:02;;;;;;;10.97;6.60;;;17.10;99.90;;;;;;5062150;28;20201;-68
2022/07/30 01:48:32;;;;;;;7.90;6.33;;;17.10;99.90;;;;;;5058041;28;20237;-68
2022/07/30 01:51:03;;;;;;;9.10;6.00;;;17.10;99.90;;;;;;5059831;28;20658;-68
2022/07/30 01:53:35;;;;;;;9.20;6.03;;;17.00;99.90;;;;;;5053579;28;20257;-68
2022/07/30 01:56:03;;;;;;;8.40;6.70;;;17.00;99.90;;;;;;5052429;28;20202;-68
2022/07/30 01:58:36;;;;;;;8.30;5.83;;;17.00;99.90;;;;;;5051986;28;20214;-68
2022/07/30 02:01:03;;;;;;;10.27;7.37;;;16.90;99.90;;;;;;5051112;28;20272;-69
2022/07/30 02:03:31;;;;;;;11.37;6.60;;;16.90;99.90;;;;;;5051790;28;20210;-69
2022/07/30 02:06:03;;;;;;;7.77;5.80;;;17.10;99.90;;;;;;5054523;28;20194;-67
2022/07/30 02:08:39;;;;;;;8.77;6.67;;;17.00;99.90;;;;;;5053951;28;20195;-68
2022/07/30 02:11:15;;;;;;;8.57;6.97;;;16.90;99.90;;;;;;5051999;28;20238;-66
2022/07/30 02:13:51;;;;;;;7.23;5.93;;;17.00;99.90;;;;;;5053267;28;20230;-69
2022/07/30 02:16:27;;;;;;;8.63;6.03;;;16.90;99.90;;;;;;5051175;28;20198;-68
2022/07/30 02:19:05;;;;;;;12.73;6.30;;;16.80;99.90;;;;;;5052758;28;20638;-68
2022/07/30 02:21:37;;;;;;;10.87;6.53;;;16.80;99.90;;;;;;5029585;28;20227;-69
2022/07/30 02:24:07;;;;;;;10.03;6.77;;;16.80;99.90;;;;;;5052435;28;20222;-68
2022/07/30 02:26:36;;;;;;;9.70;7.00;;;16.80;99.90;;;;;;5053420;28;20202;-66
2022/07/30 02:29:05;;;;;;;7.40;6.30;;;16.80;99.90;;;;;;5050245;28;20199;-68
2022/07/30 02:31:38;;;;;;;9.37;6.77;;;16.70;99.90;;;;;;5047835;28;20797;-65
2022/07/30 02:34:07;;;;;;;9.30;6.40;;;16.90;99.90;;;;;;5052053;28;20202;-69
2022/07/30 02:36:35;;;;;;;10.10;7.47;;;16.80;99.90;;;;;;5051303;28;20260;-68
2022/07/30 02:39:03;;;;;;;9.10;7.10;;;16.80;99.90;;;;;;5058370;28;20267;-69
2022/07/30 02:41:33;;;;;;;12.77;7.20;;;16.70;99.90;;;;;;5052897;28;20221;-68
2022/07/30 02:44:01;;;;;;;8.77;6.37;;;16.70;99.90;;;;;;5051333;28;20225;-69
2022/07/30 02:46:28;;;;;;;9.37;6.93;;;16.60;99.90;;;;;;5052300;28;20698;-66
2022/07/30 02:48:57;;;;;;;9.87;7.23;;;16.60;99.90;;;;;;5050820;28;20187;-67
2022/07/30 02:51:26;;;;;;;9.77;8.10;;;16.60;99.90;;;;;;5052237;28;20221;-68
2022/07/30 02:53:55;;;;;;;9.07;7.43;;;16.70;99.90;;;;;;5053050;28;20215;-68
2022/07/30 02:56:23;;;;;;;10.80;7.63;;;16.70;99.90;;;;;;5052024;28;20221;-68
2022/07/30 02:58:51;;;;;;;10.87;8.00;;;16.60;99.90;;;;;;5055876;28;20198;-68
2022/07/30 03:01:21;;;;;;;10.93;8.50;;;16.70;99.90;;;;;;5052677;28;20311;-67
2022/07/30 03:03:49;;;;;;;11.23;7.93;;;16.70;99.90;;;;;;5050647;28;20222;-65
2022/07/30 03:06:17;;;;;;;8.70;6.93;;;16.70;99.90;;;;;;5050186;28;20206;-68
2022/07/30 03:08:45;;;;;;;12.07;8.13;;;16.60;99.90;;;;;;5051654;28;20194;-68
2022/07/30 03:11:16;;;;;;;11.00;8.27;;;16.50;99.90;;;;;;5060515;28;20210;-68
2022/07/30 03:13:43;;;;;;;10.63;8.43;;;16.40;99.90;;;;;;5049859;28;20199;-68
2022/07/30 03:16:12;;;;;;;13.97;7.47;;;16.60;99.90;;;;;;5052679;28;20194;-68
2022/07/30 03:18:41;;;;;;;11.33;8.70;;;16.60;99.90;;;;;;5034892;28;20248;-67
2022/07/30 03:21:10;;;;;;;11.00;7.53;;;16.50;99.90;;;;;;5051259;28;20241;-67
2022/07/30 03:23:39;;;;;;;12.00;8.50;;;16.50;99.90;;;;;;5052648;28;20218;-66
2022/07/30 03:26:07;;;;;;;17.03;10.90;;;16.60;99.90;;;;;;5053290;28;20207;-68
2022/07/30 03:28:38;;;;;;;12.40;8.60;;;16.60;99.90;;;;;;5052654;28;21495;-68
2022/07/30 03:31:06;;;;;;;10.97;7.80;;;16.80;99.90;;;;;;5050196;28;20219;-68
2022/07/30 03:33:35;;;;;;;11.20;7.60;;;16.70;99.90;;;;;;5034880;28;20194;-68
2022/07/30 03:36:06;;;;;;;12.07;8.37;;;16.60;99.90;;;;;;5052972;28;20248;-68
2022/07/30 03:38:35;;;;;;;14.90;9.57;;;16.50;99.90;;;;;;5051728;28;20202;-68
2022/07/30 03:41:03;;;;;;;14.47;9.10;;;16.40;99.90;;;;;;5047028;28;20221;-67
2022/07/30 03:43:30;;;;;;;13.70;8.70;;;16.40;99.90;;;;;;5035294;28;20860;-65
2022/07/30 03:46:01;;;;;;;12.90;8.07;;;16.40;99.90;;;;;;5050581;28;20658;-68
2022/07/30 03:48:29;;;;;;;10.30;7.83;;;16.30;99.90;;;;;;5030427;28;20282;-68
2022/07/30 03:50:57;;;;;;;12.50;9.03;;;16.30;99.90;;;;;;5050573;28;20301;-68
2022/07/30 03:53:24;;;;;;;16.53;10.03;;;16.30;99.90;;;;;;5050318;28;20235;-68
2022/07/30 03:55:52;;;;;;;11.93;8.40;;;16.30;99.90;;;;;;5052785;28;20198;-66
2022/07/30 03:58:19;;;;;;;14.37;9.40;;;16.30;99.90;;;;;;5051759;28;20215;-69
2022/07/30 04:00:48;;;;;;;12.70;9.50;;;16.30;99.90;;;;;;5030010;28;20226;-67
2022/07/30 04:03:28;;;;;;;12.83;9.63;;;16.20;99.90;;;;;;5053331;28;20316;-69
2022/07/30 04:05:55;;;;;;;11.57;9.57;;;16.20;99.90;;;;;;5052030;28;20195;-69
2022/07/30 04:08:22;;;;;;;12.57;8.63;;;16.20;99.90;;;;;;5052892;28;20612;-66
2022/07/30 04:10:50;;;;;;;13.43;9.33;;;16.20;99.90;;;;;;5051255;28;20230;-68
2022/07/30 04:13:17;;;;;;;15.03;8.67;;;16.10;99.90;;;;;;5047244;28;20845;-69
2022/07/30 04:16:10;;;;;;;15.27;8.80;;;16.10;99.90;;;;;;5052140;28;20199;-68
2022/07/30 04:18:59;;;;;;;12.03;8.67;;;16.10;99.90;;;;;;5053233;28;20197;-68
2022/07/30 04:21:30;;;;;;;12.60;9.17;;;16.10;99.90;;;;;;5059337;28;20222;-69
2022/07/30 04:24:00;;;;;;;10.40;8.37;;;16.20;99.90;;;;;;5049169;28;20222;-68
2022/07/30 04:26:33;;;;;;;14.83;9.50;;;16.20;99.90;;;;;;5038358;28;20240;-68
2022/07/30 04:29:01;;;;;;;13.60;9.10;;;16.10;99.90;;;;;;5030809;28;20617;-69
2022/07/30 04:31:34;;;;;;;11.60;9.60;;;16.30;99.90;;;;;;5054284;28;20712;-67
2022/07/30 04:34:06;;;;;;;11.20;9.07;;;16.30;99.90;;;;;;5052330;28;20209;-66
2022/07/30 04:36:34;;;;;;;13.03;8.20;;;16.30;99.90;;;;;;5051990;28;20929;-67
2022/07/30 04:39:01;;;;;;;13.17;9.47;;;16.30;99.90;;;;;;5049620;28;20203;-67
2022/07/30 04:41:27;;;;;;;12.93;10.50;;;16.30;99.90;;;;;;5041940;28;20226;-67
2022/07/30 04:43:59;;;;;;;13.73;9.17;;;16.40;99.90;;;;;;5046459;28;20307;-66
2022/07/30 04:46:26;;;;;;;13.13;9.27;;;16.50;99.90;;;;;;5046582;28;20662;-66
2022/07/30 04:48:52;;;;;;;13.50;9.23;;;16.50;99.90;;;;;;5045117;28;20577;-68
2022/07/30 04:51:25;;;;;;;15.97;9.43;;;16.60;99.90;;;;;;5046900;28;20227;-68
2022/07/30 04:53:53;;;;;;;14.93;9.80;;;16.50;99.90;;;;;;5044748;28;20255;-68
2022/07/30 04:56:21;;;;;;;16.17;9.97;;;16.50;99.90;;;;;;5046801;28;20500;-68
2022/07/30 04:58:49;;;;;;;13.03;9.37;;;16.70;99.90;;;;;;5050780;28;20716;-68
2022/07/30 05:01:21;;;;;;;15.87;9.43;;;16.80;99.90;;;;;;5048276;28;20223;-68
2022/07/30 05:03:51;;;;;;;16.80;10.13;;;16.80;99.90;;;;;;5051425;28;20673;-68
2022/07/30 05:06:19;;;;;;;10.20;8.83;;;16.90;99.90;;;;;;5050580;28;20195;-68
2022/07/30 05:08:47;;;;;;;13.03;8.70;;;16.90;99.90;;;;;;5051132;28;20200;-67
2022/07/30 05:11:14;;;;;;;10.57;8.10;;;17.00;99.90;;;;;;5034999;28;20206;-68
2022/07/30 05:13:43;;;;;;;10.97;8.77;;;17.10;99.90;;;;;;5054779;28;20202;-68
2022/07/30 05:16:12;;;;;;;9.23;8.00;;;17.10;99.90;;;;;;5057750;28;20206;-68
2022/07/30 05:18:39;;;;;;;9.17;7.13;;;17.30;99.90;;;;;;5043529;28;20199;-67
2022/07/30 05:21:06;;;;;;;10.70;7.57;;;17.30;99.90;;;;;;5042251;28;20218;-68
2022/07/30 05:23:33;;;;;;;9.93;7.43;;;17.40;99.90;;;;;;5052472;28;20253;-68
2022/07/30 05:26:00;;;;;;;14.70;7.87;;;17.50;99.90;;;;;;5052517;28;20199;-68
2022/07/30 05:28:27;;;;;;;9.50;6.43;;;17.70;99.90;;;;;;5050698;28;20642;-67
2022/07/30 05:30:54;;;;;;;11.87;7.50;;;17.90;99.90;;;;;;5054084;28;20214;-68
2022/07/30 05:33:22;;;;;;;12.90;7.30;;;17.90;99.90;;;;;;5052018;28;20209;-68
2022/07/30 05:36:06;;;;;;;9.17;6.47;;;18.20;99.90;;;;;;5056891;28;20234;-68
2022/07/30 05:38:34;;;;;;;8.57;6.83;;;18.20;99.90;;;;;;5053472;28;20202;-68
2022/07/30 05:41:00;;;;;;;11.33;7.20;;;18.20;99.90;;;;;;5045257;28;20214;-68
2022/07/30 05:43:27;;;;;;;7.20;5.70;;;18.30;99.90;;;;;;5049232;28;20626;-68
2022/07/30 05:45:53;;;;;;;7.67;6.10;;;18.40;99.90;;;;;;5052238;28;20191;-68
2022/07/30 05:48:20;;;;;;;10.17;7.03;;;18.50;99.90;;;;;;5052459;28;20206;-68
2022/07/30 05:50:47;;;;;;;7.87;5.93;;;18.60;99.90;;;;;;5051779;28;20214;-67
2022/07/30 05:53:13;;;;;;;8.97;6.23;;;18.80;99.90;;;;;;5049361;28;20202;-68
2022/07/30 05:55:40;;;;;;;11.73;6.30;;;18.90;99.90;;;;;;5052554;28;20199;-68
2022/07/30 05:58:07;;;;;;;7.87;6.37;;;19.00;99.90;;;;;;5041512;28;20199;-67
2022/07/30 06:00:34;;;;;;;8.17;6.43;;;19.10;99.90;;;;;;5050637;28;20215;-68
2022/07/30 06:03:01;;;;;;;7.60;5.63;;;19.40;99.90;;;;;;5052149;28;20191;-67
2022/07/30 06:05:28;;;;;;;5.67;5.10;;;19.50;99.90;;;;;;5045037;28;20595;-67
2022/07/30 06:07:54;;;;;;;9.17;6.33;;;19.60;99.90;;;;;;5052096;28;20199;-68
2022/07/30 06:10:21;;;;;;;12.33;6.70;;;19.80;99.90;;;;;;5050288;28;20272;-68
2022/07/30 06:12:48;;;;;;;9.60;6.00;;;19.90;99.90;;;;;;5051238;28;20194;-68
2022/07/30 06:15:14;;;;;;;9.23;6.13;;;19.80;99.90;;;;;;5052038;28;20272;-68
2022/07/30 06:17:46;;;;;;;12.93;6.60;;;19.90;99.90;;;;;;5051547;28;20241;-68
2022/07/30 06:20:28;;;;;;;9.63;6.30;;;20.10;99.90;;;;;;5051082;28;20226;-68
2022/07/30 06:22:54;;;;;;;15.63;8.25;;;20.20;99.90;;;;;;5044476;28;20676;-68
2022/07/30 06:25:21;;;;;;;12.25;7.03;;;20.30;99.90;;;;;;5051476;28;20202;-68
2022/07/30 06:27:48;;;;;;;9.93;6.78;;;20.40;99.90;;;;;;5049549;28;20202;-68
2022/07/30 06:30:14;;;;;;;10.43;6.30;;;20.50;99.90;;;;;;5047930;28;20234;-67
2022/07/30 06:32:44;;;;;;;8.90;6.00;;;20.70;99.90;;;;;;5047952;28;20622;-68
2022/07/30 06:35:14;;;;;;;10.32;6.07;;;20.80;99.90;;;;;;5051385;28;20209;-68
2022/07/30 06:37:41;;;;;;;8.18;6.00;;;20.90;99.90;;;;;;5031861;28;20194;-68
2022/07/30 06:40:28;;;;;;;11.48;6.68;;;21.00;99.90;;;;;;5050603;28;20223;-68
2022/07/30 06:42:55;;;;;;;8.77;6.70;;;20.90;99.90;;;;;;5051286;28;20199;-68
2022/07/30 06:45:21;;;;;;;11.20;5.68;;;20.80;99.90;;;;;;5049901;28;20226;-68
2022/07/30 06:47:48;;;;;;;8.95;6.25;;;20.90;99.90;;;;;;5049905;28;20654;-67
2022/07/30 06:50:19;;;;;;;10.50;5.95;;;20.90;99.90;;;;;;5049890;28;20218;-69
2022/07/30 06:52:46;;;;;;;12.68;6.47;;;21.00;99.90;;;;;;5051126;28;20203;-69
2022/07/30 06:55:12;;;;;;;8.63;5.75;;;21.30;99.90;;;;;;5049080;28;20190;-68
2022/07/30 06:57:39;;;;;;;13.90;6.35;;;21.50;99.90;;;;;;5043904;28;20217;-68
2022/07/30 07:00:08;;;;;;;9.77;6.13;;;21.60;99.90;;;;;;5050568;28;20249;-68
2022/07/30 07:02:35;;;;;;;13.30;5.95;;;21.60;99.90;;;;;;5048835;28;20198;-68
2022/07/30 07:05:02;;;;;;;12.15;6.88;;;21.70;99.90;;;;;;5050448;28;20226;-69
2022/07/30 07:07:29;;;;;;;8.55;5.53;;;21.80;99.90;;;;;;5050831;28;20260;-68
2022/07/30 07:10:09;;;;;;;8.43;6.07;;;21.90;99.90;;;;;;5045633;28;20207;-69
2022/07/30 07:12:36;;;;;;;10.70;5.50;;;22.20;99.90;;;;;;5050724;28;20198;-68
2022/07/30 07:15:04;;;;;;;8.25;5.72;;;22.80;99.90;;;;;;5050637;28;20202;-69
2022/07/30 07:17:30;;;;;;;11.50;5.53;;;23.20;99.90;;;;;;5037614;28;20202;-69
2022/07/30 07:19:57;;;;;;;6.35;4.70;;;23.90;99.90;;;;;;5050340;28;20191;-69
2022/07/30 07:22:28;;;;;;;7.22;5.00;;;24.60;99.90;;;;;;5050799;28;20289;-69
2022/07/30 07:24:54;;;;;;;11.57;5.28;;;25.10;99.90;;;;;;5048726;28;20245;-69
2022/07/30 07:27:21;;;;;;;7.80;5.05;;;25.50;99.90;;;;;;5038720;28;20268;-69
2022/07/30 07:29:48;;;;;;;7.03;5.32;;;26.00;99.90;;;;;;5049571;28;20199;-69
2022/07/30 07:32:33;;;;;;;7.70;5.75;;;26.20;99.90;;;;;;5049182;28;20208;-69
2022/07/30 07:35:00;;;;;;;6.90;5.55;;;26.40;99.90;;;;;;5045698;28;20221;-68
2022/07/30 07:37:27;;;;;;;9.82;5.35;;;26.50;99.90;;;;;;5050558;28;20662;-69
2022/07/30 07:39:53;;;;;;;12.00;6.68;;;26.20;99.90;;;;;;5050530;28;20202;-69
2022/07/30 07:42:20;;;;;;;10.95;5.82;;;26.00;99.90;;;;;;5048390;28;20275;-69
2022/07/30 07:44:46;;;;;;;10.90;6.60;;;26.00;99.90;;;;;;5050107;28;20588;-70
2022/07/30 07:47:13;;;;;;;10.45;5.85;;;26.10;99.90;;;;;;5049792;28;20198;-69
2022/07/30 07:49:40;;;;;;;10.70;6.10;;;26.20;99.90;;;;;;5049080;28;20191;-69
2022/07/30 07:52:07;;;;;;;9.68;6.43;;;26.20;99.90;;;;;;5049430;28;20218;-69
2022/07/30 07:54:33;;;;;;;11.05;6.07;;;26.20;99.90;;;;;;5050080;28;20199;-70
2022/07/30 07:57:00;;;;;;;9.75;5.72;;;26.40;99.90;;;;;;5043211;28;20195;-69
2022/07/30 07:59:30;;;;;;;11.23;5.53;;;26.40;99.90;;;;;;5048376;28;20665;-69
2022/07/30 08:02:05;;;;;;;9.95;6.05;;;26.40;99.90;;;;;;5049635;28;20246;-69
2022/07/30 08:04:33;;;;;;;7.45;5.43;;;26.20;99.90;;;;;;5049820;28;20764;-69
2022/07/30 08:07:00;;;;;;;11.05;6.03;;;26.20;99.90;;;;;;5040497;28;20194;-69
2022/07/30 08:09:27;;;;;;;7.82;5.50;;;25.90;99.90;;;;;;5049621;28;20284;-69
2022/07/30 08:12:11;;;;;;;10.00;5.07;;;25.90;99.90;;;;;;5050135;28;20550;-69
2022/07/30 08:14:38;;;;;;;8.85;5.30;;;26.00;99.90;;;;;;5048903;28;20665;-70
2022/07/30 08:17:05;;;;;;;8.32;5.18;;;26.10;99.90;;;;;;5050833;28;20230;-69
2022/07/30 08:19:33;;;;;;;7.40;4.88;;;26.30;99.90;;;;;;5049146;28;20207;-69
2022/07/30 08:21:59;;;;;;;9.05;6.15;;;26.30;99.90;;;;;;5049737;28;20272;-69
2022/07/30 08:24:26;;;;;;;10.00;5.82;;;26.20;99.90;;;;;;5049153;28;20226;-69
2022/07/30 08:26:53;;;;;;;8.13;5.47;;;26.10;99.90;;;;;;5049871;28;20195;-68
2022/07/30 08:29:19;;;;;;;7.53;5.47;;;26.00;99.90;;;;;;5049613;28;20666;-70
2022/07/30 08:31:46;;;;;;;7.82;5.43;;;26.20;99.90;;;;;;5048077;28;20233;-69
2022/07/30 08:34:13;;;;;;;8.73;5.35;;;26.20;99.90;;;;;;5049185;28;20261;-68
2022/07/30 08:36:40;;;;;;;7.65;5.45;;;26.10;99.90;;;;;;5048949;28;20563;-69
2022/07/30 08:39:07;;;;;;;8.52;4.70;;;26.00;99.90;;;;;;5034424;28;20571;-69
2022/07/30 08:41:36;;;;;;;11.45;4.75;;;26.20;99.90;;;;;;5047851;28;20857;-69
2022/07/30 08:44:03;;;;;;;7.57;5.65;;;26.50;99.90;;;;;;5052984;28;20218;-69
2022/07/30 08:46:38;;;;;;;9.52;5.57;;;26.50;99.90;;;;;;5053493;28;20198;-69
2022/07/30 08:49:05;;;;;;;10.07;4.55;;;26.50;99.90;;;;;;5052866;28;20198;-69
2022/07/30 08:51:37;;;;;;;5.25;4.43;;;26.80;99.90;;;;;;5045528;28;20210;-70
2022/07/30 08:54:05;;;;;;;8.35;4.28;;;27.10;99.90;;;;;;5052785;28;20198;-69
2022/07/30 08:56:32;;;;;;;7.38;4.30;;;27.30;99.90;;;;;;5053242;28;20478;-70
2022/07/30 08:59:00;;;;;;;11.30;5.10;;;27.50;99.90;;;;;;5046841;28;20587;-69
2022/07/30 09:01:27;;;;;;;7.20;3.75;;;27.60;99.90;;;;;;5053352;28;20222;-69
2022/07/30 09:03:53;;;;;;;7.30;4.63;;;27.90;99.90;;;;;;5053238;28;20218;-69
2022/07/30 09:06:20;;;;;;;7.32;5.20;;;27.70;99.90;;;;;;5050009;28;20190;-70
2022/07/30 09:08:47;;;;;;;6.53;4.47;;;27.80;99.90;;;;;;5046384;28;20194;-69
2022/07/30 09:11:14;;;;;;;9.10;4.10;;;27.60;99.90;;;;;;5052275;28;20242;-69
2022/07/30 09:13:41;;;;;;;5.97;4.53;;;27.40;99.90;;;;;;5041166;28;20194;-69
2022/07/30 09:16:22;;;;;;;6.78;4.22;;;27.50;99.90;;;;;;5052655;28;20199;-70
2022/07/30 09:18:50;;;;;;;5.43;3.65;;;27.70;99.90;;;;;;5051123;28;20650;-69
2022/07/30 09:21:20;;;;;;;6.40;4.00;;;27.80;99.90;;;;;;5052135;28;20254;-70
2022/07/30 09:24:00;;;;;;;8.27;4.18;;;28.20;99.90;;;;;;5047987;28;20228;-69
2022/07/30 09:26:28;;;;;;;11.48;3.50;;;28.70;99.90;;;;;;5052643;28;20239;-70
2022/07/30 09:29:13;;;;;;;19.00;4.32;;;29.00;99.90;;;;;;5052735;28;20202;-69
2022/07/30 09:32:03;;;;;;;4.57;3.30;;;29.20;99.90;;;;;;5045457;28;20272;-70
2022/07/30 09:34:38;;;;;;;5.68;3.20;;;28.80;99.90;;;;;;5052455;28;20206;-70
2022/07/30 09:37:08;;;;;;;5.15;2.90;;;28.10;99.90;;;;;;5052832;28;20223;-69
2022/07/30 09:39:40;;;;;;;5.20;2.90;;;27.60;99.90;;;;;;5050336;28;20207;-70
2022/07/30 09:42:25;;;;;;;5.32;3.10;;;27.70;99.90;;;;;;5052169;28;20335;-69
2022/07/30 09:45:07;;;;;;;5.85;2.88;;;28.00;99.90;;;;;;5051061;28;20222;-69
2022/07/30 09:47:39;;;;;;;4.32;2.78;;;28.30;99.90;;;;;;5049465;28;20267;-70
2022/07/30 09:50:14;;;;;;;4.13;3.28;;;28.30;99.90;;;;;;5052050;28;20215;-68
2022/07/30 09:53:06;;;;;;;4.25;3.13;;;27.90;99.90;;;;;;5051185;28;20742;-70
2022/07/30 09:55:34;;;;;;;5.95;2.83;;;27.50;99.90;;;;;;5051773;28;20209;-69
2022/07/30 09:58:04;;;;;;;6.13;3.38;;;27.20;99.90;;;;;;5046491;28;20546;-69
2022/07/30 10:00:33;;;;;;;5.30;3.50;;;27.10;99.90;;;;;;5051801;28;20273;-68
2022/07/30 10:03:15;;;;;;;5.53;3.65;;;27.00;99.90;;;;;;5052003;28;20577;-69
2022/07/30 10:06:00;;;;;;;4.28;3.38;;;26.70;99.90;;;;;;5038229;28;20643;-69
2022/07/30 10:08:39;;;;;;;7.55;3.33;;;26.40;99.90;;;;;;5051856;28;20213;-69
2022/07/30 10:11:08;;;;;;;4.82;2.88;;;26.50;99.90;;;;;;5051730;28;20215;-69
2022/07/30 10:13:36;;;;;;;4.78;2.90;;;26.80;99.90;;;;;;5049378;28;20344;-69
2022/07/30 10:16:06;;;;;;;3.08;2.78;;;27.20;99.90;;;;;;5046427;28;20253;-69
2022/07/30 10:18:33;;;;;;;5.25;2.63;;;27.30;99.90;;;;;;5051802;28;20521;-70
2022/07/30 10:21:01;;;;;;;7.03;2.88;;;27.70;99.90;;;;;;5051228;28;20245;-70
2022/07/30 10:23:32;;;;;;;4.70;2.35;;;27.90;99.90;;;;;;5049423;28;20209;-69
2022/07/30 10:25:59;;;;;;;3.10;2.08;;;28.20;99.90;;;;;;5051696;28;20219;-69
2022/07/30 10:28:30;;;;;;;4.32;2.10;;;28.60;99.90;;;;;;5051405;28;20692;-70
2022/07/30 10:31:04;;;;;;;3.90;2.35;;;28.90;99.90;;;;;;5048282;28;20210;-69
2022/07/30 10:33:51;;;;;;;4.60;2.13;;;29.20;99.90;;;;;;5050007;28;20190;-70
2022/07/30 10:36:20;;;;;;;5.60;2.40;;;29.30;99.60;;;;;;5051332;28;20203;-69
2022/07/30 10:38:50;;;;;;;3.40;2.20;;;29.20;99.60;;;;;;5051425;28;20226;-67
2022/07/30 10:41:40;;;;;;;3.65;2.70;;;29.00;99.90;;;;;;5051016;28;20214;-69
2022/07/30 10:44:47;;;;;;;4.28;2.47;;;28.80;99.90;;;;;;5044580;28;20934;-69
2022/07/30 10:47:20;;;;;;;2.80;2.40;;;28.40;99.90;;;;;;5047639;28;20214;-69
2022/07/30 10:50:13;;;;;;;2.72;2.30;;;28.60;99.90;;;;;;5047921;28;20252;-69
2022/07/30 10:52:59;;;;;;;3.63;2.80;;;28.60;99.90;;;;;;5048244;28;20567;-70
2022/07/30 10:55:28;;;;;;;6.78;2.70;;;28.50;99.90;;;;;;5050808;28;20199;-69
2022/07/30 10:58:12;;;;;;;7.90;3.08;;;28.20;99.90;;;;;;5050030;28;20198;-68
2022/07/30 11:00:43;;;;;;;3.30;2.38;;;28.10;99.90;;;;;;5048262;28;20229;-69
2022/07/30 11:03:19;;;;;;;2.88;2.38;;;27.50;99.50;;;;;;5050974;28;20222;-70
2022/07/30 11:05:50;;;;;;;3.63;2.58;;;27.30;99.90;;;;;;5044093;28;20249;-70
2022/07/30 11:08:38;;;;;;;3.95;2.70;;;27.20;99.90;;;;;;5050528;28;20278;-68
2022/07/30 11:11:21;;;;;;;5.38;2.67;;;27.40;99.90;;;;;;5050053;28;20210;-69
2022/07/30 11:14:07;;;;;;;5.20;2.40;;;27.60;99.90;;;;;;5044249;28;20199;-68
2022/07/30 11:16:34;;;;;;;3.65;2.42;;;27.80;99.90;;;;;;5050365;28;20203;-69
2022/07/30 11:19:08;;;;;;;6.90;2.50;;;28.20;99.90;;;;;;5043799;28;20247;-69
2022/07/30 11:22:34;;;;;;;3.63;2.45;;;28.60;99.90;;;;;;5047043;28;20221;-70
2022/07/30 11:25:02;;;;;;;3.10;2.70;;;29.10;99.90;;;;;;5044681;28;20635;-70
2022/07/30 11:27:41;;;;;;;3.13;2.50;;;29.30;99.90;;;;;;5050179;28;20572;-70
2022/07/30 11:30:14;;;;;;;2.90;2.40;;;29.20;99.90;;;;;;5049190;28;20219;-69
2022/07/30 11:32:53;;;;;;;3.25;2.60;;;29.40;98.60;;;;;;5062833;28;20235;-69
2022/07/30 11:35:24;;;;;;;4.35;2.50;;;29.20;99.60;;;;;;5050448;28;20281;-69
2022/07/30 11:37:58;;;;;;;2.65;2.40;;;28.80;99.20;;;;;;5047802;28;20226;-69
2022/07/30 11:40:34;;;;;;;4.43;2.42;;;28.70;99.50;;;;;;5039570;28;20701;-70
2022/07/30 11:43:24;;;;;;;3.15;2.60;;;29.00;99.90;;;;;;5049838;28;20191;-69
2022/07/30 11:46:12;;;;;;;3.50;2.67;;;29.10;98.40;;;;;;5044341;28;20242;-69
2022/07/30 11:48:58;;;;;;;4.78;2.50;;;28.80;98.20;;;;;;5047843;28;20199;-68
2022/07/30 11:51:25;;;;;;;4.70;2.65;;;28.30;98.50;;;;;;5049908;28;20223;-68
2022/07/30 11:54:06;;;;;;;3.15;2.25;;;28.20;98.10;;;;;;5050477;28;20190;-67
2022/07/30 11:56:33;;;;;;;4.93;2.55;;;28.40;99.30;;;;;;5044439;28;20202;-69
2022/07/30 11:59:02;;;;;;;3.25;2.22;;;28.80;98.80;;;;;;5050023;28;20199;-70
2022/07/30 12:01:29;;;;;;;2.72;2.53;;;28.80;98.50;;;;;;5049422;28;20223;-69
2022/07/30 12:03:56;;;;;;;3.88;2.17;;;28.80;98.50;;;;;;5049024;28;20276;-69
2022/07/30 12:06:23;;;;;;;2.40;2.20;;;28.90;98.10;;;;;;5043877;28;20592;-69
2022/07/30 12:08:51;;;;;;;3.67;2.40;;;29.00;97.60;;;;;;5049894;28;20415;-69
2022/07/30 12:11:30;;;;;;;2.40;2.20;;;29.10;97.00;;;;;;5049409;28;20276;-68
2022/07/30 12:13:58;;;;;;;2.45;2.25;;;28.90;96.30;;;;;;5048475;28;20198;-69
2022/07/30 12:16:26;;;;;;;3.05;2.05;;;29.20;96.70;;;;;;5050625;28;20195;-69
2022/07/30 12:18:53;;;;;;;2.90;2.22;;;29.40;95.80;;;;;;5050640;28;20682;-69
2022/07/30 12:21:23;;;;;;;4.60;2.28;;;29.40;95.80;;;;;;5052956;28;20743;-69
2022/07/30 12:23:53;;;;;;;2.78;2.25;;;29.50;96.30;;;;;;5053528;28;20198;-69
2022/07/30 12:26:31;;;;;;;2.95;2.28;;;29.00;96.30;;;;;;5054180;28;20218;-69
2022/07/30 12:29:01;;;;;;;5.15;2.63;;;28.70;96.20;;;;;;5047535;28;20198;-69
2022/07/30 12:31:28;;;;;;;3.10;2.63;;;28.60;96.40;;;;;;5053472;28;20233;-69
2022/07/30 12:33:59;;;;;;;2.83;2.53;;;28.60;96.20;;;;;;5053523;28;20781;-69
2022/07/30 12:36:34;;;;;;;3.35;2.53;;;28.70;96.20;;;;;;5049258;28;20698;-69
2022/07/30 12:39:02;;;;;;;4.60;2.50;;;28.60;96.60;;;;;;5053432;28;20688;-69
2022/07/30 12:41:47;;;;;;;2.90;2.60;;;28.50;96.00;;;;;;5053164;28;20222;-70
2022/07/30 12:44:52;;;;;;;2.47;2.22;;;28.70;96.20;;;;;;5051813;28;20195;-69
2022/07/30 12:47:24;;;;;;;3.13;2.83;;;28.80;96.60;;;;;;4933452;29;20201;-69
2022/07/30 12:49:56;;;;;;;4.03;2.65;;;28.70;96.20;;;;;;4933022;29;20197;-69
2022/07/30 12:52:28;;;;;;;5.97;2.70;;;28.50;95.60;;;;;;4999678;28;20194;-69
2022/07/30 12:55:08;;;;;;;3.03;2.40;;;28.30;96.30;;;;;;5048949;28;20733;-74
2022/07/30 12:57:55;;;;;;;6.88;2.30;;;28.50;95.50;;;;;;5052758;28;20627;-68
2022/07/30 13:00:27;;;;;;;4.32;2.30;;;28.50;96.20;;;;;;5052202;28;20223;-69
2022/07/30 13:02:55;;;;;;;5.93;2.53;;;28.50;95.60;;;;;;5039926;28;20206;-67
2022/07/30 13:05:48;;;;;;;5.38;2.30;;;28.50;95.50;;;;;;5052563;28;20223;-69